デリー の空港の天気 - METARとTAF

インディラ・ガンディー国際空港 ( VIDP / DEL ) - インド デリー
飛行場実況気象(Metar)
観測時間01/22 01:00 IST (01/21 19:30 UTC)
風向・風速北東 3m/s
視程1200m
天気現象もや
全天の4割程度の雲 雲底高度 1220m
全天の8割程度の雲 雲底高度 3050m
気温13℃
湿度100%
気圧1009hPa
METARVIDP 211930Z 05006KT 1200 R28/2000 R29/2000 BR SCT040 BKN100 13/13 Q1009 NOSIG
過去の天気等 Google飛行場航空写真 Wunderground天気予報

過去48時間のMETAR

飛行場予報(TAF)
発表時間: 1/21 19:30 IST (1/21 14:00 UTC)
予報対象時間: 21日20時 IST ~ 22日5時 IST
風向・風速南東 3m/s
視程1200m
天気現象もや
少しの雲 雲底高度 3050m
22日2時 IST ~ 22日4時 IST に徐々に
風向・風速静穏
視程1000m
天気現象もや 弱い雨
全天の4割程度の雲 雲底高度 910m
全天の8割程度の雲 雲底高度 2740m
TAF VIDP 211400Z 2115/2124 13005KT 1200 BR FEW100
BECMG 2121/2123 00000KT 1000 BR -RA SCT030 BKN090